sensor_id;sensor_type;location;lat;lon;timestamp;noise_LAeq;noise_LA_min;noise_LA_max;noise_LA01;noise_LA95
67900;Laerm;54700;51.796;10.956;2022-09-20T00:00:00;39.99;33.59;46.32;;
67900;Laerm;54700;51.796;10.956;2022-09-20T00:02:26;52.76;33.46;70.17;;
67900;Laerm;54700;51.796;10.956;2022-09-20T00:04:53;36.48;31.18;46.27;;
67900;Laerm;54700;51.796;10.956;2022-09-20T00:07:20;36.08;29.81;45.64;;
67900;Laerm;54700;51.796;10.956;2022-09-20T00:09:47;49.59;30.31;65.08;;
67900;Laerm;54700;51.796;10.956;2022-09-20T00:12:15;38.40;32.00;49.41;;
67900;Laerm;54700;51.796;10.956;2022-09-20T00:14:41;37.43;31.79;46.67;;
67900;Laerm;54700;51.796;10.956;2022-09-20T00:17:08;37.92;30.89;53.77;;
67900;Laerm;54700;51.796;10.956;2022-09-20T00:19:35;33.94;29.64;46.15;;
67900;Laerm;54700;51.796;10.956;2022-09-20T00:22:01;32.83;28.55;44.54;;
67900;Laerm;54700;51.796;10.956;2022-09-20T00:24:28;34.14;29.02;42.25;;
67900;Laerm;54700;51.796;10.956;2022-09-20T00:26:55;34.17;29.25;45.21;;
67900;Laerm;54700;51.796;10.956;2022-09-20T00:29:23;32.90;27.89;45.77;;
67900;Laerm;54700;51.796;10.956;2022-09-20T00:31:50;31.46;27.93;44.11;;
67900;Laerm;54700;51.796;10.956;2022-09-20T00:34:17;32.05;28.15;52.75;;
67900;Laerm;54700;51.796;10.956;2022-09-20T00:37:01;54.65;27.78;71.31;;
67900;Laerm;54700;51.796;10.956;2022-09-20T00:39:28;32.07;27.50;43.94;;
67900;Laerm;54700;51.796;10.956;2022-09-20T00:41:55;31.04;28.10;46.55;;
67900;Laerm;54700;51.796;10.956;2022-09-20T00:44:52;30.77;27.99;44.72;;
67900;Laerm;54700;51.796;10.956;2022-09-20T00:47:27;30.77;27.76;46.34;;
67900;Laerm;54700;51.796;10.956;2022-09-20T00:50:00;31.68;28.69;44.94;;
67900;Laerm;54700;51.796;10.956;2022-09-20T00:52:28;33.10;28.74;45.91;;
67900;Laerm;54700;51.796;10.956;2022-09-20T00:54:57;33.06;28.88;42.04;;
67900;Laerm;54700;51.796;10.956;2022-09-20T00:57:25;33.44;29.48;46.26;;
67900;Laerm;54700;51.796;10.956;2022-09-20T00:59:53;52.19;29.16;67.73;;
67900;Laerm;54700;51.796;10.956;2022-09-20T01:02:25;36.81;30.15;45.25;;
67900;Laerm;54700;51.796;10.956;2022-09-20T01:04:53;35.98;29.50;45.44;;
67900;Laerm;54700;51.796;10.956;2022-09-20T01:07:22;50.48;30.78;65.56;;
67900;Laerm;54700;51.796;10.956;2022-09-20T01:09:49;32.64;28.32;45.42;;
67900;Laerm;54700;51.796;10.956;2022-09-20T01:12:19;34.09;29.83;43.90;;
67900;Laerm;54700;51.796;10.956;2022-09-20T01:14:49;36.29;30.61;44.11;;
67900;Laerm;54700;51.796;10.956;2022-09-20T01:17:18;36.47;30.90;49.31;;
67900;Laerm;54700;51.796;10.956;2022-09-20T01:19:53;49.61;30.37;67.09;;
67900;Laerm;54700;51.796;10.956;2022-09-20T01:22:26;32.80;28.75;46.62;;
67900;Laerm;54700;51.796;10.956;2022-09-20T01:25:03;31.74;28.89;44.42;;
67900;Laerm;54700;51.796;10.956;2022-09-20T01:27:40;33.27;29.47;44.23;;
67900;Laerm;54700;51.796;10.956;2022-09-20T01:30:09;33.13;28.71;46.32;;
67900;Laerm;54700;51.796;10.956;2022-09-20T01:32:48;31.86;28.10;41.55;;
67900;Laerm;54700;51.796;10.956;2022-09-20T01:35:19;56.99;30.56;71.32;;
67900;Laerm;54700;51.796;10.956;2022-09-20T01:37:58;39.05;28.64;57.44;;
67900;Laerm;54700;51.796;10.956;2022-09-20T01:40:37;50.34;28.55;68.08;;
67900;Laerm;54700;51.796;10.956;2022-09-20T01:43:14;40.88;28.00;60.04;;
67900;Laerm;54700;51.796;10.956;2022-09-20T01:45:45;33.41;28.48;42.59;;
67900;Laerm;54700;51.796;10.956;2022-09-20T01:48:18;32.95;28.38;42.04;;
67900;Laerm;54700;51.796;10.956;2022-09-20T01:51:26;31.00;28.12;42.77;;
67900;Laerm;54700;51.796;10.956;2022-09-20T01:54:19;33.53;28.99;44.14;;
67900;Laerm;54700;51.796;10.956;2022-09-20T01:57:23;36.27;30.93;44.67;;
67900;Laerm;54700;51.796;10.956;2022-09-20T02:00:11;50.71;28.96;67.23;;
67900;Laerm;54700;51.796;10.956;2022-09-20T02:03:01;34.60;29.90;45.38;;
67900;Laerm;54700;51.796;10.956;2022-09-20T02:05:52;34.12;29.67;43.65;;
67900;Laerm;54700;51.796;10.956;2022-09-20T02:08:49;36.63;29.80;46.57;;
67900;Laerm;54700;51.796;10.956;2022-09-20T02:11:28;37.87;32.56;47.95;;
67900;Laerm;54700;51.796;10.956;2022-09-20T02:14:07;36.41;32.46;44.16;;
67900;Laerm;54700;51.796;10.956;2022-09-20T02:16:47;38.15;32.02;50.82;;
67900;Laerm;54700;51.796;10.956;2022-09-20T02:19:40;47.94;31.87;61.40;;
67900;Laerm;54700;51.796;10.956;2022-09-20T02:22:25;57.62;32.86;75.61;;
67900;Laerm;54700;51.796;10.956;2022-09-20T02:25:11;57.27;32.45;75.23;;
67900;Laerm;54700;51.796;10.956;2022-09-20T02:27:49;56.55;33.01;74.17;;
67900;Laerm;54700;51.796;10.956;2022-09-20T02:30:34;54.44;32.15;69.14;;
67900;Laerm;54700;51.796;10.956;2022-09-20T02:33:16;41.01;33.83;56.63;;
67900;Laerm;54700;51.796;10.956;2022-09-20T02:36:00;54.60;35.27;69.00;;
67900;Laerm;54700;51.796;10.956;2022-09-20T02:38:41;58.74;36.48;72.33;;
67900;Laerm;54700;51.796;10.956;2022-09-20T02:41:37;39.50;34.37;48.37;;
67900;Laerm;54700;51.796;10.956;2022-09-20T02:44:14;55.35;33.45;71.00;;
67900;Laerm;54700;51.796;10.956;2022-09-20T02:46:48;44.13;36.06;55.19;;
67900;Laerm;54700;51.796;10.956;2022-09-20T02:49:27;40.11;35.68;48.35;;
67900;Laerm;54700;51.796;10.956;2022-09-20T02:52:00;52.02;36.14;67.72;;
67900;Laerm;54700;51.796;10.956;2022-09-20T02:54:43;54.14;37.06;68.78;;
67900;Laerm;54700;51.796;10.956;2022-09-20T02:57:16;53.77;36.05;68.43;;
67900;Laerm;54700;51.796;10.956;2022-09-20T02:59:51;56.74;35.97;69.51;;
67900;Laerm;54700;51.796;10.956;2022-09-20T03:02:25;48.14;35.48;60.14;;
67900;Laerm;54700;51.796;10.956;2022-09-20T03:05:05;54.02;34.78;68.34;;
67900;Laerm;54700;51.796;10.956;2022-09-20T03:07:41;60.90;38.26;72.58;;
67900;Laerm;54700;51.796;10.956;2022-09-20T03:10:16;55.64;36.76;71.07;;
67900;Laerm;54700;51.796;10.956;2022-09-20T03:12:54;54.69;36.40;67.41;;
67900;Laerm;54700;51.796;10.956;2022-09-20T03:15:31;54.92;37.28;72.04;;
67900;Laerm;54700;51.796;10.956;2022-09-20T03:18:07;60.49;36.78;73.47;;
67900;Laerm;54700;51.796;10.956;2022-09-20T03:20:47;58.38;39.74;70.21;;
67900;Laerm;54700;51.796;10.956;2022-09-20T03:23:34;61.88;40.68;72.94;;
67900;Laerm;54700;51.796;10.956;2022-09-20T03:26:13;61.00;39.97;72.44;;
67900;Laerm;54700;51.796;10.956;2022-09-20T03:29:00;61.51;39.77;74.67;;
67900;Laerm;54700;51.796;10.956;2022-09-20T03:31:50;59.71;38.39;72.73;;
67900;Laerm;54700;51.796;10.956;2022-09-20T03:34:32;62.17;38.88;74.39;;
67900;Laerm;54700;51.796;10.956;2022-09-20T03:37:21;57.14;37.96;72.31;;
67900;Laerm;54700;51.796;10.956;2022-09-20T03:40:23;59.30;38.96;80.59;;
67900;Laerm;54700;51.796;10.956;2022-09-20T03:43:03;61.46;39.88;71.78;;
67900;Laerm;54700;51.796;10.956;2022-09-20T03:45:48;63.91;37.81;78.14;;
67900;Laerm;54700;51.796;10.956;2022-09-20T03:48:35;59.45;38.04;70.91;;
67900;Laerm;54700;51.796;10.956;2022-09-20T03:51:20;61.08;43.31;74.47;;
67900;Laerm;54700;51.796;10.956;2022-09-20T04:00:07;58.08;38.64;70.50;;
67900;Laerm;54700;51.796;10.956;2022-09-20T04:06:03;60.94;38.02;72.89;;
67900;Laerm;54700;51.796;10.956;2022-09-20T04:08:47;69.80;38.59;87.89;;
67900;Laerm;54700;51.796;10.956;2022-09-20T04:11:24;59.98;40.02;71.13;;
67900;Laerm;54700;51.796;10.956;2022-09-20T04:14:05;63.27;42.61;75.41;;
67900;Laerm;54700;51.796;10.956;2022-09-20T04:16:41;63.66;40.25;75.41;;
67900;Laerm;54700;51.796;10.956;2022-09-20T04:19:13;59.57;39.25;75.38;;
67900;Laerm;54700;51.796;10.956;2022-09-20T04:21:50;62.75;39.47;73.70;;
67900;Laerm;54700;51.796;10.956;2022-09-20T04:24:22;60.82;38.28;72.82;;
67900;Laerm;54700;51.796;10.956;2022-09-20T04:26:59;63.78;44.84;72.39;;
67900;Laerm;54700;51.796;10.956;2022-09-20T04:29:35;64.10;40.87;74.69;;
67900;Laerm;54700;51.796;10.956;2022-09-20T04:32:13;63.88;47.98;71.98;;
67900;Laerm;54700;51.796;10.956;2022-09-20T04:34:43;61.79;40.80;74.02;;
67900;Laerm;54700;51.796;10.956;2022-09-20T04:37:31;63.37;40.77;71.35;;
67900;Laerm;54700;51.796;10.956;2022-09-20T04:40:16;65.19;46.01;74.17;;
67900;Laerm;54700;51.796;10.956;2022-09-20T04:43:21;62.56;40.50;77.01;;
67900;Laerm;54700;51.796;10.956;2022-09-20T04:46:30;63.96;49.57;73.79;;
67900;Laerm;54700;51.796;10.956;2022-09-20T04:49:35;65.33;52.85;72.99;;
67900;Laerm;54700;51.796;10.956;2022-09-20T04:52:25;64.03;42.37;76.36;;
67900;Laerm;54700;51.796;10.956;2022-09-20T04:55:23;65.29;47.39;77.78;;
67900;Laerm;54700;51.796;10.956;2022-09-20T04:58:35;65.48;44.34;74.32;;
67900;Laerm;54700;51.796;10.956;2022-09-20T05:08:18;64.98;42.93;75.84;;
67900;Laerm;54700;51.796;10.956;2022-09-20T05:11:39;64.96;45.14;73.37;;
67900;Laerm;54700;51.796;10.956;2022-09-20T05:14:46;65.72;47.11;79.67;;
67900;Laerm;54700;51.796;10.956;2022-09-20T05:24:06;64.44;44.11;74.15;;
67900;Laerm;54700;51.796;10.956;2022-09-20T05:27:09;64.88;40.19;72.97;;
67900;Laerm;54700;51.796;10.956;2022-09-20T05:29:50;64.99;40.70;73.25;;
67900;Laerm;54700;51.796;10.956;2022-09-20T05:32:24;64.86;42.60;72.66;;
67900;Laerm;54700;51.796;10.956;2022-09-20T05:35:03;65.83;46.69;73.62;;
67900;Laerm;54700;51.796;10.956;2022-09-20T05:37:47;66.22;42.48;77.89;;
67900;Laerm;54700;51.796;10.956;2022-09-20T05:40:28;64.20;41.92;73.86;;
67900;Laerm;54700;51.796;10.956;2022-09-20T05:43:12;64.66;44.90;81.33;;
67900;Laerm;54700;51.796;10.956;2022-09-20T05:46:02;64.78;48.54;72.62;;
67900;Laerm;54700;51.796;10.956;2022-09-20T05:48:49;63.61;48.09;73.77;;
67900;Laerm;54700;51.796;10.956;2022-09-20T05:51:57;64.41;47.44;72.10;;
67900;Laerm;54700;51.796;10.956;2022-09-20T05:58:43;65.23;47.91;75.15;;
67900;Laerm;54700;51.796;10.956;2022-09-20T06:02:07;72.10;47.06;84.07;;
67900;Laerm;54700;51.796;10.956;2022-09-20T06:08:33;65.50;45.74;73.71;;
67900;Laerm;54700;51.796;10.956;2022-09-20T06:11:39;63.49;41.78;73.12;;
67900;Laerm;54700;51.796;10.956;2022-09-20T06:14:20;66.76;48.44;81.32;;
67900;Laerm;54700;51.796;10.956;2022-09-20T06:17:06;63.92;40.91;73.26;;
67900;Laerm;54700;51.796;10.956;2022-09-20T06:19:40;63.92;37.72;74.78;;
67900;Laerm;54700;51.796;10.956;2022-09-20T06:22:15;65.56;49.21;74.20;;
67900;Laerm;54700;51.796;10.956;2022-09-20T06:24:48;63.62;41.68;74.24;;
67900;Laerm;54700;51.796;10.956;2022-09-20T06:27:28;63.99;41.01;73.76;;
67900;Laerm;54700;51.796;10.956;2022-09-20T06:30:02;59.27;38.29;70.33;;
67900;Laerm;54700;51.796;10.956;2022-09-20T06:32:34;64.44;44.44;75.83;;
67900;Laerm;54700;51.796;10.956;2022-09-20T06:35:03;63.80;45.62;73.28;;
67900;Laerm;54700;51.796;10.956;2022-09-20T06:37:46;62.81;40.71;71.68;;
67900;Laerm;54700;51.796;10.956;2022-09-20T06:40:41;64.90;39.65;72.51;;
67900;Laerm;54700;51.796;10.956;2022-09-20T06:43:43;63.45;39.22;73.86;;
67900;Laerm;54700;51.796;10.956;2022-09-20T06:46:12;63.35;43.27;72.92;;
67900;Laerm;54700;51.796;10.956;2022-09-20T06:48:40;64.01;44.42;75.18;;
67900;Laerm;54700;51.796;10.956;2022-09-20T06:51:07;65.02;45.98;72.07;;
67900;Laerm;54700;51.796;10.956;2022-09-20T06:53:42;66.16;45.40;73.28;;
67900;Laerm;54700;51.796;10.956;2022-09-20T06:56:14;64.92;46.56;76.14;;
67900;Laerm;54700;51.796;10.956;2022-09-20T06:58:47;64.96;40.96;77.12;;
67900;Laerm;54700;51.796;10.956;2022-09-20T07:01:15;62.40;41.21;77.53;;
67900;Laerm;54700;51.796;10.956;2022-09-20T07:03:43;64.70;43.55;75.04;;
67900;Laerm;54700;51.796;10.956;2022-09-20T07:06:12;63.07;38.49;72.67;;
67900;Laerm;54700;51.796;10.956;2022-09-20T07:08:43;66.81;42.93;74.79;;
67900;Laerm;54700;51.796;10.956;2022-09-20T07:11:13;60.56;40.93;71.15;;
67900;Laerm;54700;51.796;10.956;2022-09-20T07:13:41;62.74;40.24;75.07;;
67900;Laerm;54700;51.796;10.956;2022-09-20T07:16:11;64.09;41.51;80.83;;
67900;Laerm;54700;51.796;10.956;2022-09-20T07:18:41;71.36;49.24;93.15;;
67900;Laerm;54700;51.796;10.956;2022-09-20T07:21:08;63.51;47.59;73.01;;
67900;Laerm;54700;51.796;10.956;2022-09-20T07:23:41;65.55;43.63;72.21;;
67900;Laerm;54700;51.796;10.956;2022-09-20T07:26:25;64.40;46.96;73.83;;
67900;Laerm;54700;51.796;10.956;2022-09-20T07:28:56;65.37;46.55;73.25;;
67900;Laerm;54700;51.796;10.956;2022-09-20T07:31:36;63.44;45.57;74.28;;
67900;Laerm;54700;51.796;10.956;2022-09-20T07:34:06;63.61;40.75;75.22;;
67900;Laerm;54700;51.796;10.956;2022-09-20T07:43:36;66.39;43.07;83.95;;
67900;Laerm;54700;51.796;10.956;2022-09-20T07:46:38;63.35;41.90;72.95;;
67900;Laerm;54700;51.796;10.956;2022-09-20T07:50:02;62.94;44.65;73.96;;
67900;Laerm;54700;51.796;10.956;2022-09-20T07:53:04;63.52;43.87;71.83;;
67900;Laerm;54700;51.796;10.956;2022-09-20T07:59:12;64.89;43.07;73.01;;
67900;Laerm;54700;51.796;10.956;2022-09-20T08:05:24;63.59;46.27;71.66;;
67900;Laerm;54700;51.796;10.956;2022-09-20T08:07:58;62.82;42.38;72.43;;
67900;Laerm;54700;51.796;10.956;2022-09-20T08:10:41;63.73;43.58;73.44;;
67900;Laerm;54700;51.796;10.956;2022-09-20T08:13:20;64.18;42.59;74.53;;
67900;Laerm;54700;51.796;10.956;2022-09-20T08:16:11;65.35;48.41;73.13;;
67900;Laerm;54700;51.796;10.956;2022-09-20T08:18:45;63.45;48.90;72.62;;
67900;Laerm;54700;51.796;10.956;2022-09-20T08:21:14;64.62;48.86;74.28;;
67900;Laerm;54700;51.796;10.956;2022-09-20T08:23:43;64.79;50.25;74.07;;
67900;Laerm;54700;51.796;10.956;2022-09-20T08:26:13;65.38;47.36;74.40;;
67900;Laerm;54700;51.796;10.956;2022-09-20T08:28:41;65.08;45.68;77.03;;
67900;Laerm;54700;51.796;10.956;2022-09-20T08:31:11;66.57;48.23;77.09;;
67900;Laerm;54700;51.796;10.956;2022-09-20T08:33:39;64.58;51.17;74.50;;
67900;Laerm;54700;51.796;10.956;2022-09-20T08:36:10;62.82;47.56;71.08;;
67900;Laerm;54700;51.796;10.956;2022-09-20T08:38:41;64.56;51.31;72.75;;
67900;Laerm;54700;51.796;10.956;2022-09-20T08:41:13;65.53;48.13;74.36;;
67900;Laerm;54700;51.796;10.956;2022-09-20T08:43:43;66.16;44.05;81.55;;
67900;Laerm;54700;51.796;10.956;2022-09-20T08:46:17;64.53;48.92;75.06;;
67900;Laerm;54700;51.796;10.956;2022-09-20T08:48:45;63.85;44.70;75.46;;
67900;Laerm;54700;51.796;10.956;2022-09-20T08:51:18;64.25;39.50;72.88;;
67900;Laerm;54700;51.796;10.956;2022-09-20T08:53:55;62.42;47.04;73.15;;
67900;Laerm;54700;51.796;10.956;2022-09-20T08:56:34;67.88;52.97;77.54;;
67900;Laerm;54700;51.796;10.956;2022-09-20T08:59:02;64.77;50.34;75.00;;
67900;Laerm;54700;51.796;10.956;2022-09-20T09:01:33;61.19;40.76;71.88;;
67900;Laerm;54700;51.796;10.956;2022-09-20T09:04:20;63.67;49.30;70.93;;
67900;Laerm;54700;51.796;10.956;2022-09-20T09:06:51;63.90;47.69;72.51;;
67900;Laerm;54700;51.796;10.956;2022-09-20T09:09:24;64.29;43.88;72.47;;
67900;Laerm;54700;51.796;10.956;2022-09-20T09:11:54;62.13;47.78;71.50;;
67900;Laerm;54700;51.796;10.956;2022-09-20T09:14:25;63.64;42.75;70.97;;
67900;Laerm;54700;51.796;10.956;2022-09-20T09:17:12;64.21;43.73;77.07;;
67900;Laerm;54700;51.796;10.956;2022-09-20T09:19:47;64.39;43.58;75.44;;
67900;Laerm;54700;51.796;10.956;2022-09-20T09:22:21;59.66;43.04;69.59;;
67900;Laerm;54700;51.796;10.956;2022-09-20T09:25:09;62.20;43.42;72.88;;
67900;Laerm;54700;51.796;10.956;2022-09-20T09:27:53;65.22;50.08;72.45;;
67900;Laerm;54700;51.796;10.956;2022-09-20T09:30:31;63.96;45.39;73.25;;
67900;Laerm;54700;51.796;10.956;2022-09-20T09:33:23;63.72;47.20;77.88;;
67900;Laerm;54700;51.796;10.956;2022-09-20T09:35:53;65.29;47.87;74.59;;
67900;Laerm;54700;51.796;10.956;2022-09-20T09:51:37;63.96;48.23;74.72;;
67900;Laerm;54700;51.796;10.956;2022-09-20T09:56:12;64.42;43.08;78.48;;
67900;Laerm;54700;51.796;10.956;2022-09-20T09:59:44;64.82;44.34;85.80;;
67900;Laerm;54700;51.796;10.956;2022-09-20T10:02:59;66.62;49.32;76.19;;
67900;Laerm;54700;51.796;10.956;2022-09-20T10:05:42;64.96;45.96;78.15;;
67900;Laerm;54700;51.796;10.956;2022-09-20T10:08:50;63.80;46.70;76.30;;
67900;Laerm;54700;51.796;10.956;2022-09-20T10:11:36;64.56;51.68;73.28;;
67900;Laerm;54700;51.796;10.956;2022-09-20T10:14:21;65.35;47.32;81.00;;
67900;Laerm;54700;51.796;10.956;2022-09-20T10:17:04;64.14;47.50;71.69;;
67900;Laerm;54700;51.796;10.956;2022-09-20T10:19:45;60.64;39.48;69.51;;
67900;Laerm;54700;51.796;10.956;2022-09-20T10:22:23;63.16;42.53;74.84;;
67900;Laerm;54700;51.796;10.956;2022-09-20T10:25:12;64.00;43.30;74.01;;
67900;Laerm;54700;51.796;10.956;2022-09-20T10:27:58;65.02;50.84;79.27;;
67900;Laerm;54700;51.796;10.956;2022-09-20T10:30:43;64.13;43.13;77.91;;
67900;Laerm;54700;51.796;10.956;2022-09-20T10:33:47;62.34;41.57;73.19;;
67900;Laerm;54700;51.796;10.956;2022-09-20T10:36:33;64.41;48.30;72.63;;
67900;Laerm;54700;51.796;10.956;2022-09-20T10:39:18;61.61;47.45;71.44;;
67900;Laerm;54700;51.796;10.956;2022-09-20T10:42:03;61.05;43.23;73.56;;
67900;Laerm;54700;51.796;10.956;2022-09-20T10:45:03;63.71;42.74;72.50;;
67900;Laerm;54700;51.796;10.956;2022-09-20T10:47:55;63.65;45.02;72.27;;
67900;Laerm;54700;51.796;10.956;2022-09-20T10:50:48;62.55;45.03;72.08;;
67900;Laerm;54700;51.796;10.956;2022-09-20T10:53:33;63.57;41.52;75.37;;
67900;Laerm;54700;51.796;10.956;2022-09-20T10:56:22;62.36;45.63;71.27;;
67900;Laerm;54700;51.796;10.956;2022-09-20T10:59:24;63.63;45.02;73.21;;
67900;Laerm;54700;51.796;10.956;2022-09-20T11:02:11;62.63;39.66;70.92;;
67900;Laerm;54700;51.796;10.956;2022-09-20T11:05:17;63.08;41.39;75.60;;
67900;Laerm;54700;51.796;10.956;2022-09-20T11:07:58;65.11;42.80;75.79;;
67900;Laerm;54700;51.796;10.956;2022-09-20T11:10:41;63.66;41.31;74.06;;
67900;Laerm;54700;51.796;10.956;2022-09-20T11:13:21;63.98;44.41;72.64;;
67900;Laerm;54700;51.796;10.956;2022-09-20T11:15:55;63.77;48.57;74.04;;
67900;Laerm;54700;51.796;10.956;2022-09-20T11:18:30;63.73;43.21;81.03;;
67900;Laerm;54700;51.796;10.956;2022-09-20T11:21:09;63.11;43.79;72.55;;
67900;Laerm;54700;51.796;10.956;2022-09-20T11:23:54;62.12;44.50;71.16;;
67900;Laerm;54700;51.796;10.956;2022-09-20T11:26:40;64.01;41.26;72.25;;
67900;Laerm;54700;51.796;10.956;2022-09-20T11:29:19;63.69;41.43;74.74;;
67900;Laerm;54700;51.796;10.956;2022-09-20T11:31:52;63.48;43.82;74.53;;
67900;Laerm;54700;51.796;10.956;2022-09-20T11:34:29;63.53;44.96;73.29;;
67900;Laerm;54700;51.796;10.956;2022-09-20T11:37:00;64.92;45.27;75.60;;
67900;Laerm;54700;51.796;10.956;2022-09-20T11:39:38;64.11;50.30;74.68;;
67900;Laerm;54700;51.796;10.956;2022-09-20T11:42:17;63.44;50.79;78.50;;
67900;Laerm;54700;51.796;10.956;2022-09-20T11:44:47;64.13;47.14;78.18;;
67900;Laerm;54700;51.796;10.956;2022-09-20T11:47:19;64.36;46.74;77.61;;
67900;Laerm;54700;51.796;10.956;2022-09-20T11:50:02;75.82;47.99;96.49;;
67900;Laerm;54700;51.796;10.956;2022-09-20T11:52:45;65.43;54.15;75.56;;
67900;Laerm;54700;51.796;10.956;2022-09-20T11:55:34;64.84;41.55;72.58;;
67900;Laerm;54700;51.796;10.956;2022-09-20T11:58:09;65.09;47.40;76.79;;
67900;Laerm;54700;51.796;10.956;2022-09-20T12:00:39;65.12;52.03;72.59;;
67900;Laerm;54700;51.796;10.956;2022-09-20T12:03:21;62.99;48.60;72.20;;
67900;Laerm;54700;51.796;10.956;2022-09-20T12:05:56;64.75;44.25;73.48;;
67900;Laerm;54700;51.796;10.956;2022-09-20T12:08:25;64.46;47.10;72.49;;
67900;Laerm;54700;51.796;10.956;2022-09-20T12:10:58;63.93;41.20;70.65;;
67900;Laerm;54700;51.796;10.956;2022-09-20T12:13:30;63.20;43.98;71.02;;
67900;Laerm;54700;51.796;10.956;2022-09-20T12:16:03;64.49;50.20;73.72;;
67900;Laerm;54700;51.796;10.956;2022-09-20T12:18:44;62.19;42.14;73.29;;
67900;Laerm;54700;51.796;10.956;2022-09-20T12:21:13;64.10;42.36;71.92;;
67900;Laerm;54700;51.796;10.956;2022-09-20T12:24:19;64.05;38.38;74.28;;
67900;Laerm;54700;51.796;10.956;2022-09-20T12:26:49;62.65;47.22;70.70;;
67900;Laerm;54700;51.796;10.956;2022-09-20T12:32:55;64.14;45.15;73.26;;
67900;Laerm;54700;51.796;10.956;2022-09-20T12:35:51;62.88;40.89;76.95;;
67900;Laerm;54700;51.796;10.956;2022-09-20T12:38:32;65.13;45.89;74.54;;
67900;Laerm;54700;51.796;10.956;2022-09-20T12:41:12;65.70;48.13;74.94;;
67900;Laerm;54700;51.796;10.956;2022-09-20T12:44:18;62.81;40.18;71.72;;
67900;Laerm;54700;51.796;10.956;2022-09-20T12:46:53;64.58;51.01;72.68;;
67900;Laerm;54700;51.796;10.956;2022-09-20T12:49:33;65.39;51.65;71.26;;
67900;Laerm;54700;51.796;10.956;2022-09-20T12:52:29;64.74;50.06;72.21;;
67900;Laerm;54700;51.796;10.956;2022-09-20T12:55:27;63.46;47.10;73.00;;
67900;Laerm;54700;51.796;10.956;2022-09-20T12:57:58;65.75;53.47;81.15;;
67900;Laerm;54700;51.796;10.956;2022-09-20T13:00:32;64.60;49.60;73.80;;
67900;Laerm;54700;51.796;10.956;2022-09-20T13:03:11;63.50;40.44;72.58;;
67900;Laerm;54700;51.796;10.956;2022-09-20T13:05:43;63.26;49.05;72.88;;
67900;Laerm;54700;51.796;10.956;2022-09-20T13:08:24;65.68;44.16;72.48;;
67900;Laerm;54700;51.796;10.956;2022-09-20T13:11:00;63.37;39.33;70.52;;
67900;Laerm;54700;51.796;10.956;2022-09-20T13:13:31;62.18;42.10;74.33;;
67900;Laerm;54700;51.796;10.956;2022-09-20T13:16:04;66.27;51.45;80.69;;
67900;Laerm;54700;51.796;10.956;2022-09-20T13:18:35;66.02;54.78;73.10;;
67900;Laerm;54700;51.796;10.956;2022-09-20T13:21:06;63.06;48.60;71.13;;
67900;Laerm;54700;51.796;10.956;2022-09-20T13:23:45;65.60;51.08;78.23;;
67900;Laerm;54700;51.796;10.956;2022-09-20T13:26:21;64.68;50.76;73.24;;
67900;Laerm;54700;51.796;10.956;2022-09-20T13:28:52;63.81;50.27;75.65;;
67900;Laerm;54700;51.796;10.956;2022-09-20T13:31:27;63.16;39.44;72.89;;
67900;Laerm;54700;51.796;10.956;2022-09-20T13:34:13;65.11;49.46;78.34;;
67900;Laerm;54700;51.796;10.956;2022-09-20T13:36:40;64.09;51.72;75.22;;
67900;Laerm;54700;51.796;10.956;2022-09-20T13:39:07;67.32;52.77;78.84;;
67900;Laerm;54700;51.796;10.956;2022-09-20T13:41:34;65.58;43.36;74.29;;
67900;Laerm;54700;51.796;10.956;2022-09-20T13:44:02;64.19;44.28;77.36;;
67900;Laerm;54700;51.796;10.956;2022-09-20T13:46:32;63.16;44.33;71.55;;
67900;Laerm;54700;51.796;10.956;2022-09-20T13:49:13;63.10;43.83;73.81;;
67900;Laerm;54700;51.796;10.956;2022-09-20T13:51:45;65.10;46.75;71.73;;
67900;Laerm;54700;51.796;10.956;2022-09-20T13:54:17;64.29;45.92;73.76;;
67900;Laerm;54700;51.796;10.956;2022-09-20T13:56:46;65.79;42.04;73.75;;
67900;Laerm;54700;51.796;10.956;2022-09-20T13:59:14;64.69;39.99;74.80;;
67900;Laerm;54700;51.796;10.956;2022-09-20T14:01:52;65.22;49.31;80.37;;
67900;Laerm;54700;51.796;10.956;2022-09-20T14:04:21;63.92;44.53;74.41;;
67900;Laerm;54700;51.796;10.956;2022-09-20T14:06:52;65.73;53.77;74.63;;
67900;Laerm;54700;51.796;10.956;2022-09-20T14:09:26;62.40;46.58;72.13;;
67900;Laerm;54700;51.796;10.956;2022-09-20T14:11:54;64.03;44.96;71.89;;
67900;Laerm;54700;51.796;10.956;2022-09-20T14:14:23;64.72;41.85;75.33;;
67900;Laerm;54700;51.796;10.956;2022-09-20T14:16:53;64.00;50.09;71.04;;
67900;Laerm;54700;51.796;10.956;2022-09-20T14:19:25;65.01;52.35;74.85;;
67900;Laerm;54700;51.796;10.956;2022-09-20T14:21:55;66.10;47.83;78.99;;
67900;Laerm;54700;51.796;10.956;2022-09-20T14:24:27;62.74;43.44;73.86;;
67900;Laerm;54700;51.796;10.956;2022-09-20T14:27:11;64.17;41.94;73.98;;
67900;Laerm;54700;51.796;10.956;2022-09-20T14:29:40;62.69;38.24;71.89;;
67900;Laerm;54700;51.796;10.956;2022-09-20T14:32:34;64.72;43.76;72.98;;
67900;Laerm;54700;51.796;10.956;2022-09-20T14:35:05;64.62;46.35;73.11;;
67900;Laerm;54700;51.796;10.956;2022-09-20T14:37:41;64.15;40.90;72.15;;
67900;Laerm;54700;51.796;10.956;2022-09-20T14:40:19;63.75;49.94;70.85;;
67900;Laerm;54700;51.796;10.956;2022-09-20T14:42:48;63.87;44.00;71.29;;
67900;Laerm;54700;51.796;10.956;2022-09-20T14:45:21;63.23;40.50;74.73;;
67900;Laerm;54700;51.796;10.956;2022-09-20T14:47:58;62.44;40.84;73.68;;
67900;Laerm;54700;51.796;10.956;2022-09-20T14:50:30;64.00;46.24;70.84;;
67900;Laerm;54700;51.796;10.956;2022-09-20T14:53:19;64.99;41.46;72.67;;
67900;Laerm;54700;51.796;10.956;2022-09-20T14:55:58;65.30;38.88;73.38;;
67900;Laerm;54700;51.796;10.956;2022-09-20T14:58:26;65.30;46.80;82.30;;
67900;Laerm;54700;51.796;10.956;2022-09-20T15:00:55;64.24;43.75;73.76;;
67900;Laerm;54700;51.796;10.956;2022-09-20T15:03:29;64.37;43.35;71.55;;
67900;Laerm;54700;51.796;10.956;2022-09-20T15:05:56;64.63;42.66;75.09;;
67900;Laerm;54700;51.796;10.956;2022-09-20T15:08:23;65.55;54.61;75.21;;
67900;Laerm;54700;51.796;10.956;2022-09-20T15:10:50;64.72;41.09;74.05;;
67900;Laerm;54700;51.796;10.956;2022-09-20T15:13:17;65.66;52.27;75.57;;
67900;Laerm;54700;51.796;10.956;2022-09-20T15:15:45;64.16;40.55;73.16;;
67900;Laerm;54700;51.796;10.956;2022-09-20T15:18:18;63.36;43.27;71.13;;
67900;Laerm;54700;51.796;10.956;2022-09-20T15:20:47;64.00;46.60;71.93;;
67900;Laerm;54700;51.796;10.956;2022-09-20T15:23:14;65.60;52.74;72.97;;
67900;Laerm;54700;51.796;10.956;2022-09-20T15:25:41;63.68;42.81;71.80;;
67900;Laerm;54700;51.796;10.956;2022-09-20T15:28:12;63.78;41.62;73.54;;
67900;Laerm;54700;51.796;10.956;2022-09-20T15:30:41;63.55;41.17;73.36;;
67900;Laerm;54700;51.796;10.956;2022-09-20T15:33:08;64.26;40.25;73.10;;
67900;Laerm;54700;51.796;10.956;2022-09-20T15:35:36;63.33;39.55;72.00;;
67900;Laerm;54700;51.796;10.956;2022-09-20T15:38:05;62.95;45.46;71.46;;